sensor_id;sensor_type;location;lat;lon;timestamp;P1;durP1;ratioP1;P2;durP2;ratioP2
11481;SDS011;5797;51.662;6.748;2023-07-31T00:00:21;2.40;;;1.70;;
11481;SDS011;5797;51.662;6.748;2023-07-31T00:02:52;2.63;;;1.90;;
11481;SDS011;5797;51.662;6.748;2023-07-31T00:05:22;1.90;;;1.60;;
11481;SDS011;5797;51.662;6.748;2023-07-31T00:07:51;1.77;;;1.40;;
11481;SDS011;5797;51.662;6.748;2023-07-31T00:10:20;1.50;;;1.30;;
11481;SDS011;5797;51.662;6.748;2023-07-31T00:12:49;2.23;;;1.90;;
11481;SDS011;5797;51.662;6.748;2023-07-31T00:15:18;3.17;;;2.20;;
11481;SDS011;5797;51.662;6.748;2023-07-31T00:17:47;3.80;;;2.07;;
11481;SDS011;5797;51.662;6.748;2023-07-31T00:20:17;3.33;;;2.20;;
11481;SDS011;5797;51.662;6.748;2023-07-31T00:22:46;3.13;;;2.20;;
11481;SDS011;5797;51.662;6.748;2023-07-31T00:25:15;4.27;;;2.50;;
11481;SDS011;5797;51.662;6.748;2023-07-31T00:27:44;3.50;;;2.37;;
11481;SDS011;5797;51.662;6.748;2023-07-31T00:30:13;5.10;;;2.57;;
11481;SDS011;5797;51.662;6.748;2023-07-31T00:32:41;5.03;;;2.70;;
11481;SDS011;5797;51.662;6.748;2023-07-31T00:35:10;5.37;;;3.03;;
11481;SDS011;5797;51.662;6.748;2023-07-31T00:37:40;4.73;;;2.97;;
11481;SDS011;5797;51.662;6.748;2023-07-31T00:40:08;6.77;;;4.03;;
11481;SDS011;5797;51.662;6.748;2023-07-31T00:42:37;8.47;;;3.60;;
11481;SDS011;5797;51.662;6.748;2023-07-31T00:45:08;9.93;;;4.07;;
11481;SDS011;5797;51.662;6.748;2023-07-31T00:47:37;14.47;;;4.97;;
11481;SDS011;5797;51.662;6.748;2023-07-31T00:50:06;11.27;;;4.30;;
11481;SDS011;5797;51.662;6.748;2023-07-31T00:52:35;13.40;;;5.10;;
11481;SDS011;5797;51.662;6.748;2023-07-31T00:55:06;12.37;;;5.20;;
11481;SDS011;5797;51.662;6.748;2023-07-31T00:57:35;13.17;;;5.07;;
11481;SDS011;5797;51.662;6.748;2023-07-31T01:00:05;16.67;;;5.97;;
11481;SDS011;5797;51.662;6.748;2023-07-31T01:02:35;16.23;;;6.73;;
11481;SDS011;5797;51.662;6.748;2023-07-31T01:05:04;9.77;;;5.40;;
11481;SDS011;5797;51.662;6.748;2023-07-31T01:07:35;17.50;;;5.73;;
11481;SDS011;5797;51.662;6.748;2023-07-31T01:10:14;17.53;;;5.87;;
11481;SDS011;5797;51.662;6.748;2023-07-31T01:12:45;14.17;;;5.60;;
11481;SDS011;5797;51.662;6.748;2023-07-31T01:15:15;19.43;;;5.90;;
11481;SDS011;5797;51.662;6.748;2023-07-31T01:17:45;17.90;;;5.93;;
11481;SDS011;5797;51.662;6.748;2023-07-31T01:20:16;20.27;;;6.43;;
11481;SDS011;5797;51.662;6.748;2023-07-31T01:25:53;15.70;;;5.03;;
11481;SDS011;5797;51.662;6.748;2023-07-31T01:28:27;18.20;;;5.03;;
11481;SDS011;5797;51.662;6.748;2023-07-31T01:31:03;15.37;;;4.73;;
11481;SDS011;5797;51.662;6.748;2023-07-31T01:33:36;12.57;;;4.90;;
11481;SDS011;5797;51.662;6.748;2023-07-31T01:36:06;21.77;;;5.43;;
11481;SDS011;5797;51.662;6.748;2023-07-31T01:38:35;13.97;;;4.60;;
11481;SDS011;5797;51.662;6.748;2023-07-31T01:41:06;13.53;;;4.47;;
11481;SDS011;5797;51.662;6.748;2023-07-31T01:43:35;11.47;;;5.20;;
11481;SDS011;5797;51.662;6.748;2023-07-31T01:46:05;13.80;;;4.83;;
11481;SDS011;5797;51.662;6.748;2023-07-31T01:48:34;11.73;;;4.37;;
11481;SDS011;5797;51.662;6.748;2023-07-31T01:51:04;9.10;;;4.70;;
11481;SDS011;5797;51.662;6.748;2023-07-31T01:53:33;15.50;;;4.70;;
11481;SDS011;5797;51.662;6.748;2023-07-31T01:56:01;9.90;;;4.43;;
11481;SDS011;5797;51.662;6.748;2023-07-31T01:58:31;14.13;;;3.97;;
11481;SDS011;5797;51.662;6.748;2023-07-31T02:01:00;9.57;;;4.53;;
11481;SDS011;5797;51.662;6.748;2023-07-31T02:03:29;13.73;;;4.83;;
11481;SDS011;5797;51.662;6.748;2023-07-31T02:05:57;11.23;;;5.10;;
11481;SDS011;5797;51.662;6.748;2023-07-31T02:08:26;10.83;;;4.03;;
11481;SDS011;5797;51.662;6.748;2023-07-31T02:10:55;13.40;;;4.37;;
11481;SDS011;5797;51.662;6.748;2023-07-31T02:13:24;11.83;;;4.40;;
11481;SDS011;5797;51.662;6.748;2023-07-31T02:15:54;13.43;;;4.53;;
11481;SDS011;5797;51.662;6.748;2023-07-31T02:18:25;17.17;;;4.13;;
11481;SDS011;5797;51.662;6.748;2023-07-31T02:20:54;11.77;;;4.20;;
11481;SDS011;5797;51.662;6.748;2023-07-31T02:23:22;11.17;;;4.60;;
11481;SDS011;5797;51.662;6.748;2023-07-31T02:25:51;12.03;;;4.80;;
11481;SDS011;5797;51.662;6.748;2023-07-31T02:28:20;11.30;;;3.90;;
11481;SDS011;5797;51.662;6.748;2023-07-31T02:30:49;8.43;;;3.73;;
11481;SDS011;5797;51.662;6.748;2023-07-31T02:33:19;9.23;;;4.40;;
11481;SDS011;5797;51.662;6.748;2023-07-31T02:35:48;7.80;;;3.83;;
11481;SDS011;5797;51.662;6.748;2023-07-31T02:38:17;13.00;;;4.73;;
11481;SDS011;5797;51.662;6.748;2023-07-31T02:40:46;15.77;;;4.77;;
11481;SDS011;5797;51.662;6.748;2023-07-31T02:43:16;8.90;;;4.20;;
11481;SDS011;5797;51.662;6.748;2023-07-31T02:45:48;9.13;;;4.60;;
11481;SDS011;5797;51.662;6.748;2023-07-31T02:48:32;10.10;;;3.63;;
11481;SDS011;5797;51.662;6.748;2023-07-31T02:51:05;13.33;;;3.97;;
11481;SDS011;5797;51.662;6.748;2023-07-31T02:53:38;11.10;;;3.90;;
11481;SDS011;5797;51.662;6.748;2023-07-31T02:56:07;9.80;;;4.23;;
11481;SDS011;5797;51.662;6.748;2023-07-31T02:58:36;9.20;;;4.27;;
11481;SDS011;5797;51.662;6.748;2023-07-31T03:01:05;12.07;;;4.10;;
11481;SDS011;5797;51.662;6.748;2023-07-31T03:03:35;13.80;;;4.27;;
11481;SDS011;5797;51.662;6.748;2023-07-31T03:06:04;9.07;;;3.27;;
11481;SDS011;5797;51.662;6.748;2023-07-31T03:08:33;11.23;;;4.00;;
11481;SDS011;5797;51.662;6.748;2023-07-31T03:11:02;14.67;;;4.60;;
11481;SDS011;5797;51.662;6.748;2023-07-31T03:13:30;11.17;;;4.00;;
11481;SDS011;5797;51.662;6.748;2023-07-31T03:15:59;10.77;;;4.70;;
11481;SDS011;5797;51.662;6.748;2023-07-31T03:18:27;18.10;;;4.97;;
11481;SDS011;5797;51.662;6.748;2023-07-31T03:20:59;14.40;;;4.43;;
11481;SDS011;5797;51.662;6.748;2023-07-31T03:23:35;15.97;;;5.37;;
11481;SDS011;5797;51.662;6.748;2023-07-31T03:26:06;11.70;;;3.57;;
11481;SDS011;5797;51.662;6.748;2023-07-31T03:28:39;14.27;;;4.53;;
11481;SDS011;5797;51.662;6.748;2023-07-31T03:31:07;11.67;;;4.43;;
11481;SDS011;5797;51.662;6.748;2023-07-31T03:33:36;14.83;;;4.10;;
11481;SDS011;5797;51.662;6.748;2023-07-31T03:36:07;9.87;;;4.00;;
11481;SDS011;5797;51.662;6.748;2023-07-31T03:38:36;12.07;;;4.07;;
11481;SDS011;5797;51.662;6.748;2023-07-31T03:41:07;7.97;;;3.60;;
11481;SDS011;5797;51.662;6.748;2023-07-31T03:43:37;9.27;;;3.97;;
11481;SDS011;5797;51.662;6.748;2023-07-31T03:46:08;15.70;;;4.30;;
11481;SDS011;5797;51.662;6.748;2023-07-31T03:48:38;11.10;;;3.77;;
11481;SDS011;5797;51.662;6.748;2023-07-31T03:51:08;14.33;;;4.53;;
11481;SDS011;5797;51.662;6.748;2023-07-31T03:53:38;9.93;;;3.90;;
11481;SDS011;5797;51.662;6.748;2023-07-31T03:56:07;10.53;;;5.53;;
11481;SDS011;5797;51.662;6.748;2023-07-31T03:58:36;13.67;;;4.63;;
11481;SDS011;5797;51.662;6.748;2023-07-31T04:01:05;18.00;;;4.80;;
11481;SDS011;5797;51.662;6.748;2023-07-31T04:03:34;11.60;;;4.50;;
11481;SDS011;5797;51.662;6.748;2023-07-31T04:06:03;9.43;;;4.00;;
11481;SDS011;5797;51.662;6.748;2023-07-31T04:08:35;7.90;;;3.63;;
11481;SDS011;5797;51.662;6.748;2023-07-31T04:11:05;11.23;;;4.43;;
11481;SDS011;5797;51.662;6.748;2023-07-31T04:13:34;14.53;;;4.73;;
11481;SDS011;5797;51.662;6.748;2023-07-31T04:16:05;8.63;;;4.47;;
11481;SDS011;5797;51.662;6.748;2023-07-31T04:18:34;15.53;;;4.33;;
11481;SDS011;5797;51.662;6.748;2023-07-31T04:21:03;10.87;;;3.60;;
11481;SDS011;5797;51.662;6.748;2023-07-31T04:23:31;12.40;;;4.17;;
11481;SDS011;5797;51.662;6.748;2023-07-31T04:26:03;14.23;;;5.00;;
11481;SDS011;5797;51.662;6.748;2023-07-31T04:28:31;11.33;;;4.13;;
11481;SDS011;5797;51.662;6.748;2023-07-31T04:31:00;11.27;;;4.20;;
11481;SDS011;5797;51.662;6.748;2023-07-31T04:33:28;14.47;;;4.20;;
11481;SDS011;5797;51.662;6.748;2023-07-31T04:35:57;12.33;;;4.40;;
11481;SDS011;5797;51.662;6.748;2023-07-31T04:38:26;16.37;;;4.30;;
11481;SDS011;5797;51.662;6.748;2023-07-31T04:40:54;14.80;;;4.33;;
11481;SDS011;5797;51.662;6.748;2023-07-31T04:43:25;8.97;;;3.90;;
11481;SDS011;5797;51.662;6.748;2023-07-31T04:45:53;12.83;;;4.70;;
11481;SDS011;5797;51.662;6.748;2023-07-31T04:48:22;8.60;;;3.93;;
11481;SDS011;5797;51.662;6.748;2023-07-31T04:50:51;11.53;;;4.23;;
11481;SDS011;5797;51.662;6.748;2023-07-31T04:53:19;11.63;;;3.97;;
11481;SDS011;5797;51.662;6.748;2023-07-31T04:55:48;17.13;;;6.77;;
11481;SDS011;5797;51.662;6.748;2023-07-31T04:58:16;13.03;;;4.33;;
11481;SDS011;5797;51.662;6.748;2023-07-31T05:00:46;7.23;;;4.23;;
11481;SDS011;5797;51.662;6.748;2023-07-31T05:03:15;14.07;;;4.67;;
11481;SDS011;5797;51.662;6.748;2023-07-31T05:05:43;9.63;;;4.67;;
11481;SDS011;5797;51.662;6.748;2023-07-31T05:08:12;11.27;;;4.17;;
11481;SDS011;5797;51.662;6.748;2023-07-31T05:10:40;10.83;;;3.83;;
11481;SDS011;5797;51.662;6.748;2023-07-31T05:13:08;10.10;;;4.23;;
11481;SDS011;5797;51.662;6.748;2023-07-31T05:15:37;10.27;;;4.27;;
11481;SDS011;5797;51.662;6.748;2023-07-31T05:18:07;8.63;;;4.57;;
11481;SDS011;5797;51.662;6.748;2023-07-31T05:20:36;11.13;;;4.13;;
11481;SDS011;5797;51.662;6.748;2023-07-31T05:23:05;12.80;;;3.63;;
11481;SDS011;5797;51.662;6.748;2023-07-31T05:25:33;13.33;;;4.00;;
11481;SDS011;5797;51.662;6.748;2023-07-31T05:28:02;11.73;;;4.43;;
11481;SDS011;5797;51.662;6.748;2023-07-31T05:30:30;8.73;;;4.40;;
11481;SDS011;5797;51.662;6.748;2023-07-31T05:32:59;9.03;;;4.10;;
11481;SDS011;5797;51.662;6.748;2023-07-31T05:35:29;13.20;;;4.60;;
11481;SDS011;5797;51.662;6.748;2023-07-31T05:37:57;11.80;;;4.37;;
11481;SDS011;5797;51.662;6.748;2023-07-31T05:40:26;9.47;;;3.97;;
11481;SDS011;5797;51.662;6.748;2023-07-31T05:42:55;7.80;;;4.60;;
11481;SDS011;5797;51.662;6.748;2023-07-31T05:45:25;9.63;;;4.37;;
11481;SDS011;5797;51.662;6.748;2023-07-31T05:47:53;10.33;;;3.90;;
11481;SDS011;5797;51.662;6.748;2023-07-31T05:50:22;9.33;;;4.73;;
11481;SDS011;5797;51.662;6.748;2023-07-31T05:52:52;11.07;;;4.93;;
11481;SDS011;5797;51.662;6.748;2023-07-31T05:55:23;9.90;;;4.13;;
11481;SDS011;5797;51.662;6.748;2023-07-31T05:57:55;7.57;;;4.17;;
11481;SDS011;5797;51.662;6.748;2023-07-31T06:00:26;11.97;;;4.37;;
11481;SDS011;5797;51.662;6.748;2023-07-31T06:02:55;9.23;;;4.00;;
11481;SDS011;5797;51.662;6.748;2023-07-31T06:05:24;7.57;;;4.23;;
11481;SDS011;5797;51.662;6.748;2023-07-31T06:07:54;8.43;;;3.67;;
11481;SDS011;5797;51.662;6.748;2023-07-31T06:10:23;8.70;;;3.30;;
11481;SDS011;5797;51.662;6.748;2023-07-31T06:12:52;10.97;;;4.17;;
11481;SDS011;5797;51.662;6.748;2023-07-31T06:15:21;6.47;;;3.63;;
11481;SDS011;5797;51.662;6.748;2023-07-31T06:17:50;9.37;;;3.97;;
11481;SDS011;5797;51.662;6.748;2023-07-31T06:20:18;10.53;;;3.87;;
11481;SDS011;5797;51.662;6.748;2023-07-31T06:22:47;11.17;;;3.60;;
11481;SDS011;5797;51.662;6.748;2023-07-31T06:25:17;7.03;;;4.07;;
11481;SDS011;5797;51.662;6.748;2023-07-31T06:27:46;10.30;;;4.80;;
11481;SDS011;5797;51.662;6.748;2023-07-31T06:30:15;8.33;;;4.23;;
11481;SDS011;5797;51.662;6.748;2023-07-31T06:32:43;7.20;;;3.83;;
11481;SDS011;5797;51.662;6.748;2023-07-31T06:35:12;9.43;;;4.27;;
11481;SDS011;5797;51.662;6.748;2023-07-31T06:37:40;8.47;;;4.23;;
11481;SDS011;5797;51.662;6.748;2023-07-31T06:40:11;6.63;;;3.87;;
11481;SDS011;5797;51.662;6.748;2023-07-31T06:42:41;12.60;;;4.37;;
11481;SDS011;5797;51.662;6.748;2023-07-31T06:45:10;8.73;;;4.40;;
11481;SDS011;5797;51.662;6.748;2023-07-31T06:47:38;7.67;;;4.23;;
11481;SDS011;5797;51.662;6.748;2023-07-31T06:50:07;9.83;;;4.40;;
11481;SDS011;5797;51.662;6.748;2023-07-31T06:52:36;8.60;;;4.17;;
11481;SDS011;5797;51.662;6.748;2023-07-31T06:55:15;11.50;;;5.00;;
11481;SDS011;5797;51.662;6.748;2023-07-31T06:57:47;11.17;;;4.93;;
11481;SDS011;5797;51.662;6.748;2023-07-31T07:00:15;8.57;;;4.70;;
11481;SDS011;5797;51.662;6.748;2023-07-31T07:02:45;7.87;;;4.53;;
11481;SDS011;5797;51.662;6.748;2023-07-31T07:05:14;9.73;;;4.83;;
11481;SDS011;5797;51.662;6.748;2023-07-31T07:07:44;7.27;;;4.57;;
11481;SDS011;5797;51.662;6.748;2023-07-31T07:10:12;8.83;;;4.20;;
11481;SDS011;5797;51.662;6.748;2023-07-31T07:12:40;5.87;;;3.73;;
11481;SDS011;5797;51.662;6.748;2023-07-31T07:15:10;7.93;;;4.50;;
11481;SDS011;5797;51.662;6.748;2023-07-31T07:17:39;6.77;;;3.87;;
11481;SDS011;5797;51.662;6.748;2023-07-31T07:20:08;7.40;;;4.23;;
11481;SDS011;5797;51.662;6.748;2023-07-31T07:22:36;5.90;;;3.10;;
11481;SDS011;5797;51.662;6.748;2023-07-31T07:25:23;5.60;;;3.60;;
11481;SDS011;5797;51.662;6.748;2023-07-31T07:27:52;4.93;;;3.47;;
11481;SDS011;5797;51.662;6.748;2023-07-31T07:30:23;6.07;;;3.30;;
11481;SDS011;5797;51.662;6.748;2023-07-31T07:32:52;7.27;;;3.70;;
11481;SDS011;5797;51.662;6.748;2023-07-31T07:35:21;8.77;;;3.70;;
11481;SDS011;5797;51.662;6.748;2023-07-31T07:37:50;8.57;;;3.47;;
11481;SDS011;5797;51.662;6.748;2023-07-31T07:40:19;6.57;;;3.27;;
11481;SDS011;5797;51.662;6.748;2023-07-31T07:42:50;5.83;;;3.57;;
11481;SDS011;5797;51.662;6.748;2023-07-31T07:45:20;6.17;;;3.67;;
11481;SDS011;5797;51.662;6.748;2023-07-31T07:47:50;9.87;;;3.57;;
11481;SDS011;5797;51.662;6.748;2023-07-31T07:50:19;6.10;;;3.70;;
11481;SDS011;5797;51.662;6.748;2023-07-31T07:52:47;3.77;;;3.00;;
11481;SDS011;5797;51.662;6.748;2023-07-31T07:55:16;6.47;;;3.07;;
11481;SDS011;5797;51.662;6.748;2023-07-31T07:57:44;8.60;;;3.50;;
11481;SDS011;5797;51.662;6.748;2023-07-31T08:00:13;5.60;;;3.10;;
11481;SDS011;5797;51.662;6.748;2023-07-31T08:02:43;7.77;;;4.03;;
11481;SDS011;5797;51.662;6.748;2023-07-31T08:05:13;3.23;;;2.43;;
11481;SDS011;5797;51.662;6.748;2023-07-31T08:07:41;6.07;;;3.10;;
11481;SDS011;5797;51.662;6.748;2023-07-31T08:10:10;5.50;;;3.17;;
11481;SDS011;5797;51.662;6.748;2023-07-31T08:12:38;6.33;;;2.93;;
11481;SDS011;5797;51.662;6.748;2023-07-31T08:15:07;6.90;;;2.93;;
11481;SDS011;5797;51.662;6.748;2023-07-31T08:17:36;3.47;;;2.67;;
11481;SDS011;5797;51.662;6.748;2023-07-31T08:20:07;4.33;;;2.97;;
11481;SDS011;5797;51.662;6.748;2023-07-31T08:22:46;3.43;;;2.43;;
11481;SDS011;5797;51.662;6.748;2023-07-31T08:25:15;3.03;;;2.57;;
11481;SDS011;5797;51.662;6.748;2023-07-31T08:27:45;4.03;;;2.70;;
11481;SDS011;5797;51.662;6.748;2023-07-31T08:30:13;4.67;;;2.67;;
11481;SDS011;5797;51.662;6.748;2023-07-31T08:32:42;5.10;;;2.50;;
11481;SDS011;5797;51.662;6.748;2023-07-31T08:35:11;3.53;;;2.43;;
11481;SDS011;5797;51.662;6.748;2023-07-31T08:37:40;4.23;;;3.03;;
11481;SDS011;5797;51.662;6.748;2023-07-31T08:40:10;5.57;;;3.07;;
11481;SDS011;5797;51.662;6.748;2023-07-31T08:42:44;4.10;;;2.47;;
11481;SDS011;5797;51.662;6.748;2023-07-31T08:45:13;5.93;;;2.83;;
11481;SDS011;5797;51.662;6.748;2023-07-31T08:47:44;6.70;;;2.53;;
11481;SDS011;5797;51.662;6.748;2023-07-31T08:50:15;3.40;;;2.50;;
11481;SDS011;5797;51.662;6.748;2023-07-31T08:52:49;4.93;;;3.00;;
11481;SDS011;5797;51.662;6.748;2023-07-31T08:55:20;3.70;;;2.77;;
11481;SDS011;5797;51.662;6.748;2023-07-31T08:57:53;3.77;;;2.70;;
11481;SDS011;5797;51.662;6.748;2023-07-31T09:00:22;4.13;;;2.60;;
11481;SDS011;5797;51.662;6.748;2023-07-31T09:02:54;3.67;;;2.70;;
11481;SDS011;5797;51.662;6.748;2023-07-31T09:05:25;4.70;;;2.87;;
11481;SDS011;5797;51.662;6.748;2023-07-31T09:07:54;5.60;;;3.17;;
11481;SDS011;5797;51.662;6.748;2023-07-31T09:10:26;3.93;;;2.30;;
11481;SDS011;5797;51.662;6.748;2023-07-31T09:12:54;5.20;;;2.87;;
11481;SDS011;5797;51.662;6.748;2023-07-31T09:15:23;3.60;;;2.80;;
11481;SDS011;5797;51.662;6.748;2023-07-31T09:18:03;2.97;;;2.37;;
11481;SDS011;5797;51.662;6.748;2023-07-31T09:20:33;4.03;;;2.10;;
11481;SDS011;5797;51.662;6.748;2023-07-31T09:23:05;3.20;;;2.60;;
11481;SDS011;5797;51.662;6.748;2023-07-31T09:25:37;2.93;;;1.93;;
11481;SDS011;5797;51.662;6.748;2023-07-31T09:28:08;3.50;;;2.77;;
11481;SDS011;5797;51.662;6.748;2023-07-31T09:30:44;5.30;;;2.73;;
11481;SDS011;5797;51.662;6.748;2023-07-31T09:33:15;4.97;;;2.50;;
11481;SDS011;5797;51.662;6.748;2023-07-31T09:35:46;4.57;;;2.47;;
11481;SDS011;5797;51.662;6.748;2023-07-31T09:38:16;5.00;;;2.67;;
11481;SDS011;5797;51.662;6.748;2023-07-31T09:40:47;5.30;;;2.70;;
11481;SDS011;5797;51.662;6.748;2023-07-31T09:43:17;3.83;;;2.30;;
11481;SDS011;5797;51.662;6.748;2023-07-31T09:45:47;3.60;;;2.87;;
11481;SDS011;5797;51.662;6.748;2023-07-31T09:48:17;5.93;;;3.20;;
11481;SDS011;5797;51.662;6.748;2023-07-31T09:50:47;4.43;;;2.77;;
11481;SDS011;5797;51.662;6.748;2023-07-31T09:53:16;4.53;;;2.73;;
11481;SDS011;5797;51.662;6.748;2023-07-31T09:55:46;7.37;;;3.10;;
11481;SDS011;5797;51.662;6.748;2023-07-31T09:58:16;2.80;;;2.27;;
11481;SDS011;5797;51.662;6.748;2023-07-31T10:00:45;4.80;;;3.03;;
11481;SDS011;5797;51.662;6.748;2023-07-31T10:03:14;4.40;;;3.00;;
11481;SDS011;5797;51.662;6.748;2023-07-31T10:05:45;4.10;;;2.60;;
11481;SDS011;5797;51.662;6.748;2023-07-31T10:08:17;5.03;;;2.77;;
11481;SDS011;5797;51.662;6.748;2023-07-31T10:10:49;6.13;;;3.27;;
11481;SDS011;5797;51.662;6.748;2023-07-31T10:13:18;3.73;;;3.20;;
11481;SDS011;5797;51.662;6.748;2023-07-31T10:15:49;3.33;;;2.60;;
11481;SDS011;5797;51.662;6.748;2023-07-31T10:18:18;4.53;;;3.20;;
11481;SDS011;5797;51.662;6.748;2023-07-31T10:20:49;3.53;;;2.50;;
11481;SDS011;5797;51.662;6.748;2023-07-31T10:23:20;5.43;;;3.17;;
11481;SDS011;5797;51.662;6.748;2023-07-31T10:25:53;4.23;;;2.90;;
11481;SDS011;5797;51.662;6.748;2023-07-31T10:28:23;4.97;;;3.07;;
11481;SDS011;5797;51.662;6.748;2023-07-31T10:30:53;7.67;;;3.27;;
11481;SDS011;5797;51.662;6.748;2023-07-31T10:33:22;8.17;;;3.60;;
11481;SDS011;5797;51.662;6.748;2023-07-31T10:35:56;5.20;;;3.07;;
11481;SDS011;5797;51.662;6.748;2023-07-31T10:38:49;6.47;;;3.83;;
11481;SDS011;5797;51.662;6.748;2023-07-31T10:41:20;6.47;;;3.20;;
11481;SDS011;5797;51.662;6.748;2023-07-31T10:44:16;6.77;;;3.90;;
11481;SDS011;5797;51.662;6.748;2023-07-31T10:46:47;5.30;;;3.43;;
11481;SDS011;5797;51.662;6.748;2023-07-31T10:49:20;8.30;;;3.23;;
11481;SDS011;5797;51.662;6.748;2023-07-31T10:51:50;5.93;;;3.20;;
11481;SDS011;5797;51.662;6.748;2023-07-31T10:54:20;7.93;;;3.70;;
11481;SDS011;5797;51.662;6.748;2023-07-31T10:56:51;6.67;;;3.93;;
11481;SDS011;5797;51.662;6.748;2023-07-31T10:59:26;7.80;;;4.20;;
11481;SDS011;5797;51.662;6.748;2023-07-31T11:01:56;7.30;;;3.40;;
11481;SDS011;5797;51.662;6.748;2023-07-31T11:04:26;5.93;;;3.73;;
11481;SDS011;5797;51.662;6.748;2023-07-31T11:06:59;6.87;;;4.37;;
11481;SDS011;5797;51.662;6.748;2023-07-31T11:09:30;6.97;;;4.17;;
11481;SDS011;5797;51.662;6.748;2023-07-31T11:12:02;9.77;;;4.60;;
11481;SDS011;5797;51.662;6.748;2023-07-31T11:14:32;8.83;;;4.20;;
11481;SDS011;5797;51.662;6.748;2023-07-31T11:17:05;5.73;;;3.33;;
11481;SDS011;5797;51.662;6.748;2023-07-31T11:19:35;7.60;;;3.73;;
11481;SDS011;5797;51.662;6.748;2023-07-31T11:22:07;7.50;;;3.60;;
11481;SDS011;5797;51.662;6.748;2023-07-31T11:24:37;4.17;;;3.20;;
11481;SDS011;5797;51.662;6.748;2023-07-31T11:27:09;8.73;;;3.80;;
11481;SDS011;5797;51.662;6.748;2023-07-31T11:29:38;8.03;;;3.30;;
11481;SDS011;5797;51.662;6.748;2023-07-31T11:32:15;5.73;;;3.33;;
11481;SDS011;5797;51.662;6.748;2023-07-31T11:34:52;5.90;;;3.33;;
11481;SDS011;5797;51.662;6.748;2023-07-31T11:37:22;3.93;;;3.30;;
11481;SDS011;5797;51.662;6.748;2023-07-31T11:39:59;7.47;;;3.50;;
11481;SDS011;5797;51.662;6.748;2023-07-31T11:42:30;4.97;;;3.70;;
11481;SDS011;5797;51.662;6.748;2023-07-31T11:45:02;5.10;;;3.80;;
11481;SDS011;5797;51.662;6.748;2023-07-31T11:47:32;6.63;;;3.87;;
11481;SDS011;5797;51.662;6.748;2023-07-31T11:50:04;4.50;;;3.40;;
11481;SDS011;5797;51.662;6.748;2023-07-31T11:52:36;4.10;;;3.17;;
11481;SDS011;5797;51.662;6.748;2023-07-31T11:55:08;5.23;;;2.90;;
11481;SDS011;5797;51.662;6.748;2023-07-31T11:57:40;5.23;;;2.67;;
11481;SDS011;5797;51.662;6.748;2023-07-31T12:00:11;5.83;;;2.90;;
11481;SDS011;5797;51.662;6.748;2023-07-31T12:02:42;5.37;;;2.60;;
11481;SDS011;5797;51.662;6.748;2023-07-31T12:05:12;4.70;;;2.87;;
11481;SDS011;5797;51.662;6.748;2023-07-31T12:07:45;5.23;;;2.77;;
11481;SDS011;5797;51.662;6.748;2023-07-31T12:10:26;5.27;;;3.30;;
11481;SDS011;5797;51.662;6.748;2023-07-31T12:12:59;6.33;;;3.00;;
11481;SDS011;5797;51.662;6.748;2023-07-31T12:15:33;4.97;;;2.87;;
11481;SDS011;5797;51.662;6.748;2023-07-31T12:18:04;4.13;;;2.80;;
11481;SDS011;5797;51.662;6.748;2023-07-31T12:20:34;4.50;;;3.00;;
11481;SDS011;5797;51.662;6.748;2023-07-31T12:23:04;4.57;;;3.10;;
11481;SDS011;5797;51.662;6.748;2023-07-31T12:25:37;6.50;;;2.97;;
11481;SDS011;5797;51.662;6.748;2023-07-31T12:28:27;5.03;;;3.17;;
11481;SDS011;5797;51.662;6.748;2023-07-31T12:31:12;4.20;;;3.20;;
11481;SDS011;5797;51.662;6.748;2023-07-31T12:33:43;6.77;;;3.03;;
11481;SDS011;5797;51.662;6.748;2023-07-31T12:36:13;4.57;;;3.33;;
11481;SDS011;5797;51.662;6.748;2023-07-31T12:38:44;3.40;;;2.60;;
11481;SDS011;5797;51.662;6.748;2023-07-31T12:41:13;5.63;;;3.20;;
11481;SDS011;5797;51.662;6.748;2023-07-31T12:43:45;5.63;;;2.40;;
11481;SDS011;5797;51.662;6.748;2023-07-31T12:46:15;3.73;;;2.50;;
11481;SDS011;5797;51.662;6.748;2023-07-31T12:48:45;5.60;;;3.10;;
11481;SDS011;5797;51.662;6.748;2023-07-31T12:51:15;4.30;;;2.90;;
11481;SDS011;5797;51.662;6.748;2023-07-31T12:53:44;4.23;;;2.80;;
11481;SDS011;5797;51.662;6.748;2023-07-31T12:56:14;5.80;;;2.70;;
11481;SDS011;5797;51.662;6.748;2023-07-31T12:58:46;6.07;;;2.80;;
11481;SDS011;5797;51.662;6.748;2023-07-31T13:01:16;4.93;;;2.60;;
11481;SDS011;5797;51.662;6.748;2023-07-31T13:03:44;2.97;;;2.33;;
11481;SDS011;5797;51.662;6.748;2023-07-31T13:06:14;3.57;;;2.57;;
11481;SDS011;5797;51.662;6.748;2023-07-31T13:08:44;3.80;;;2.77;;
11481;SDS011;5797;51.662;6.748;2023-07-31T13:11:13;5.70;;;2.70;;
11481;SDS011;5797;51.662;6.748;2023-07-31T13:13:43;5.50;;;2.53;;
11481;SDS011;5797;51.662;6.748;2023-07-31T13:16:13;2.70;;;2.40;;
11481;SDS011;5797;51.662;6.748;2023-07-31T13:18:43;2.93;;;2.63;;
11481;SDS011;5797;51.662;6.748;2023-07-31T13:21:11;2.73;;;2.43;;
11481;SDS011;5797;51.662;6.748;2023-07-31T13:23:41;5.13;;;2.70;;
11481;SDS011;5797;51.662;6.748;2023-07-31T13:26:09;6.67;;;3.07;;
11481;SDS011;5797;51.662;6.748;2023-07-31T13:28:39;7.87;;;3.00;;
11481;SDS011;5797;51.662;6.748;2023-07-31T13:31:08;6.30;;;3.23;;
11481;SDS011;5797;51.662;6.748;2023-07-31T13:33:40;4.23;;;2.90;;
11481;SDS011;5797;51.662;6.748;2023-07-31T13:36:11;3.63;;;3.00;;
11481;SDS011;5797;51.662;6.748;2023-07-31T13:38:42;4.07;;;2.87;;
11481;SDS011;5797;51.662;6.748;2023-07-31T13:41:12;4.43;;;3.00;;
11481;SDS011;5797;51.662;6.748;2023-07-31T13:43:40;4.73;;;3.20;;
11481;SDS011;5797;51.662;6.748;2023-07-31T13:46:10;4.93;;;3.90;;
11481;SDS011;5797;51.662;6.748;2023-07-31T13:48:39;9.33;;;6.27;;
11481;SDS011;5797;51.662;6.748;2023-07-31T13:51:08;8.00;;;4.03;;
11481;SDS011;5797;51.662;6.748;2023-07-31T13:53:37;8.50;;;3.83;;
11481;SDS011;5797;51.662;6.748;2023-07-31T13:56:06;8.33;;;4.57;;
11481;SDS011;5797;51.662;6.748;2023-07-31T13:58:34;6.70;;;4.10;;
11481;SDS011;5797;51.662;6.748;2023-07-31T14:01:03;5.27;;;3.63;;
11481;SDS011;5797;51.662;6.748;2023-07-31T14:03:33;5.63;;;3.93;;
11481;SDS011;5797;51.662;6.748;2023-07-31T14:06:04;7.57;;;4.50;;
11481;SDS011;5797;51.662;6.748;2023-07-31T14:08:33;5.87;;;3.70;;
11481;SDS011;5797;51.662;6.748;2023-07-31T14:11:03;6.83;;;3.60;;
11481;SDS011;5797;51.662;6.748;2023-07-31T14:13:32;6.27;;;4.10;;
11481;SDS011;5797;51.662;6.748;2023-07-31T14:16:05;5.67;;;3.53;;
11481;SDS011;5797;51.662;6.748;2023-07-31T14:18:34;8.23;;;4.43;;
11481;SDS011;5797;51.662;6.748;2023-07-31T14:21:05;5.07;;;4.30;;
11481;SDS011;5797;51.662;6.748;2023-07-31T14:23:34;5.50;;;4.37;;
11481;SDS011;5797;51.662;6.748;2023-07-31T14:26:03;5.90;;;3.70;;
11481;SDS011;5797;51.662;6.748;2023-07-31T14:28:32;5.47;;;4.00;;
11481;SDS011;5797;51.662;6.748;2023-07-31T14:31:01;9.97;;;4.60;;
11481;SDS011;5797;51.662;6.748;2023-07-31T14:33:31;7.17;;;4.10;;
11481;SDS011;5797;51.662;6.748;2023-07-31T14:36:01;7.70;;;3.90;;
11481;SDS011;5797;51.662;6.748;2023-07-31T14:38:32;9.13;;;4.00;;
11481;SDS011;5797;51.662;6.748;2023-07-31T14:41:02;6.73;;;3.57;;
11481;SDS011;5797;51.662;6.748;2023-07-31T14:43:33;5.87;;;3.63;;
11481;SDS011;5797;51.662;6.748;2023-07-31T14:46:07;4.97;;;3.90;;
11481;SDS011;5797;51.662;6.748;2023-07-31T14:48:39;6.23;;;3.77;;
11481;SDS011;5797;51.662;6.748;2023-07-31T14:51:10;6.27;;;3.70;;
11481;SDS011;5797;51.662;6.748;2023-07-31T14:53:47;5.40;;;3.73;;
11481;SDS011;5797;51.662;6.748;2023-07-31T14:56:18;6.40;;;3.80;;
11481;SDS011;5797;51.662;6.748;2023-07-31T14:58:47;9.67;;;4.20;;
11481;SDS011;5797;51.662;6.748;2023-07-31T15:01:16;10.97;;;4.10;;
11481;SDS011;5797;51.662;6.748;2023-07-31T15:03:46;8.20;;;4.10;;
11481;SDS011;5797;51.662;6.748;2023-07-31T15:06:15;6.73;;;4.03;;
11481;SDS011;5797;51.662;6.748;2023-07-31T15:08:45;7.73;;;3.90;;
11481;SDS011;5797;51.662;6.748;2023-07-31T15:11:16;6.03;;;3.53;;
11481;SDS011;5797;51.662;6.748;2023-07-31T15:13:46;12.57;;;4.67;;
11481;SDS011;5797;51.662;6.748;2023-07-31T15:16:15;7.77;;;4.60;;
11481;SDS011;5797;51.662;6.748;2023-07-31T15:18:45;9.07;;;4.27;;